sensor_id;sensor_type;location;lat;lon;timestamp;pressure;altitude;pressure_sealevel;temperature;humidity
64739;BME280;51175;51.186;0.276;2022-07-11T00:00:22;102050.63;;;23.83;44.22
64739;BME280;51175;51.186;0.276;2022-07-11T00:00:54;102053.81;;;23.85;44.44
64739;BME280;51175;51.186;0.276;2022-07-11T00:01:24;102053.00;;;23.84;43.78
64739;BME280;51175;51.186;0.276;2022-07-11T00:01:54;102052.19;;;23.84;44.19
64739;BME280;51175;51.186;0.276;2022-07-11T00:02:26;102053.00;;;23.84;44.22
64739;BME280;51175;51.186;0.276;2022-07-11T00:02:56;102054.91;;;23.84;44.16
64739;BME280;51175;51.186;0.276;2022-07-11T00:03:27;102059.19;;;23.85;44.18
64739;BME280;51175;51.186;0.276;2022-07-11T00:03:58;102053.81;;;23.85;44.25
64739;BME280;51175;51.186;0.276;2022-07-11T00:04:29;102054.91;;;23.84;44.28
64739;BME280;51175;51.186;0.276;2022-07-11T00:05:00;102054.13;;;23.83;44.15
64739;BME280;51175;51.186;0.276;2022-07-11T00:05:32;102051.75;;;23.81;44.19
64739;BME280;51175;51.186;0.276;2022-07-11T00:06:02;102057.13;;;23.81;44.23
64739;BME280;51175;51.186;0.276;2022-07-11T00:06:33;102051.75;;;23.81;44.04
64739;BME280;51175;51.186;0.276;2022-07-11T00:07:04;102045.53;;;23.81;44.15
64739;BME280;51175;51.186;0.276;2022-07-11T00:07:35;102052.06;;;23.80;44.24
64739;BME280;51175;51.186;0.276;2022-07-11T00:08:06;102059.34;;;23.79;44.26
64739;BME280;51175;51.186;0.276;2022-07-11T00:08:37;102053.13;;;23.79;44.03
64739;BME280;51175;51.186;0.276;2022-07-11T00:09:07;102054.75;;;23.80;44.40
64739;BME280;51175;51.186;0.276;2022-07-11T00:09:37;102050.44;;;23.79;44.28
64739;BME280;51175;51.186;0.276;2022-07-11T00:10:08;102051.25;;;23.79;44.32
64739;BME280;51175;51.186;0.276;2022-07-11T00:10:39;102046.16;;;23.78;44.34
64739;BME280;51175;51.186;0.276;2022-07-11T00:11:10;102042.66;;;23.77;44.35
64739;BME280;51175;51.186;0.276;2022-07-11T00:11:41;102044.59;;;23.77;44.30
64739;BME280;51175;51.186;0.276;2022-07-11T00:12:12;102046.47;;;23.76;44.27
64739;BME280;51175;51.186;0.276;2022-07-11T00:12:43;102044.59;;;23.77;44.18
64739;BME280;51175;51.186;0.276;2022-07-11T00:13:13;102044.91;;;23.75;44.28
64739;BME280;51175;51.186;0.276;2022-07-11T00:13:43;102042.19;;;23.75;44.42
64739;BME280;51175;51.186;0.276;2022-07-11T00:14:14;102045.97;;;23.74;44.43
64739;BME280;51175;51.186;0.276;2022-07-11T00:14:45;102040.59;;;23.74;44.28
64739;BME280;51175;51.186;0.276;2022-07-11T00:15:15;102041.72;;;23.73;44.22
64739;BME280;51175;51.186;0.276;2022-07-11T00:15:46;102045.97;;;23.74;44.41
64739;BME280;51175;51.186;0.276;2022-07-11T00:16:16;102044.41;;;23.73;44.54
64739;BME280;51175;51.186;0.276;2022-07-11T00:16:51;102040.91;;;23.73;44.31
64739;BME280;51175;51.186;0.276;2022-07-11T00:17:22;102046.28;;;23.73;44.37
64739;BME280;51175;51.186;0.276;2022-07-11T00:17:53;102035.81;;;23.71;44.54
64739;BME280;51175;51.186;0.276;2022-07-11T00:18:23;102039.31;;;23.72;44.29
64739;BME280;51175;51.186;0.276;2022-07-11T00:18:55;102038.84;;;23.69;44.25
64739;BME280;51175;51.186;0.276;2022-07-11T00:19:26;102041.53;;;23.69;44.31
64739;BME280;51175;51.186;0.276;2022-07-11T00:19:56;102041.53;;;23.69;44.32
64739;BME280;51175;51.186;0.276;2022-07-11T00:20:28;102040.75;;;23.69;44.47
64739;BME280;51175;51.186;0.276;2022-07-11T00:20:59;102038.06;;;23.69;44.48
64739;BME280;51175;51.186;0.276;2022-07-11T00:21:30;102036.44;;;23.68;44.42
64739;BME280;51175;51.186;0.276;2022-07-11T00:22:00;102041.06;;;23.67;44.45
64739;BME280;51175;51.186;0.276;2022-07-11T00:22:31;102044.53;;;23.68;44.34
64739;BME280;51175;51.186;0.276;2022-07-11T00:23:01;102040.25;;;23.67;44.64
64739;BME280;51175;51.186;0.276;2022-07-11T00:23:32;102034.06;;;23.66;44.55
64739;BME280;51175;51.186;0.276;2022-07-11T00:24:06;102031.38;;;23.66;44.43
64739;BME280;51175;51.186;0.276;2022-07-11T00:24:39;102035.19;;;23.65;44.63
64739;BME280;51175;51.186;0.276;2022-07-11T00:25:09;102038.97;;;23.64;44.60
64739;BME280;51175;51.186;0.276;2022-07-11T00:25:39;102038.97;;;23.64;44.52
64739;BME280;51175;51.186;0.276;2022-07-11T00:26:10;102037.38;;;23.63;44.72
64739;BME280;51175;51.186;0.276;2022-07-11T00:26:40;102037.38;;;23.63;44.40
64739;BME280;51175;51.186;0.276;2022-07-11T00:27:13;102039.28;;;23.63;44.57
64739;BME280;51175;51.186;0.276;2022-07-11T00:27:44;102034.19;;;23.61;44.45
64739;BME280;51175;51.186;0.276;2022-07-11T00:28:14;102037.69;;;23.62;44.69
64739;BME280;51175;51.186;0.276;2022-07-11T00:28:44;102040.38;;;23.62;44.53
64739;BME280;51175;51.186;0.276;2022-07-11T00:29:15;102036.13;;;23.61;44.68
64739;BME280;51175;51.186;0.276;2022-07-11T00:29:46;102038.00;;;23.60;44.64
64739;BME280;51175;51.186;0.276;2022-07-11T00:30:17;102038.00;;;23.60;44.63
64739;BME280;51175;51.186;0.276;2022-07-11T00:30:47;102044.22;;;23.61;44.71
64739;BME280;51175;51.186;0.276;2022-07-11T00:31:18;102036.13;;;23.61;44.44
64739;BME280;51175;51.186;0.276;2022-07-11T00:31:48;102032.94;;;23.59;44.57
64739;BME280;51175;51.186;0.276;2022-07-11T00:32:19;102032.13;;;23.58;44.53
64739;BME280;51175;51.186;0.276;2022-07-11T00:32:49;102036.75;;;23.58;44.80
64739;BME280;51175;51.186;0.276;2022-07-11T00:33:20;102035.13;;;23.56;44.51
64739;BME280;51175;51.186;0.276;2022-07-11T00:33:50;102030.84;;;23.55;44.60
64739;BME280;51175;51.186;0.276;2022-07-11T00:34:21;102034.34;;;23.56;44.79
64739;BME280;51175;51.186;0.276;2022-07-11T00:34:51;102034.34;;;23.56;44.42
64739;BME280;51175;51.186;0.276;2022-07-11T00:35:21;102035.13;;;23.56;44.59
64739;BME280;51175;51.186;0.276;2022-07-11T00:35:52;102028.97;;;23.56;44.58
64739;BME280;51175;51.186;0.276;2022-07-11T00:36:22;102033.56;;;23.55;44.82
64739;BME280;51175;51.186;0.276;2022-07-11T00:36:53;102029.28;;;23.54;44.69
64739;BME280;51175;51.186;0.276;2022-07-11T00:37:23;102033.56;;;23.55;44.50
64739;BME280;51175;51.186;0.276;2022-07-11T00:37:54;102034.66;;;23.54;44.59
64739;BME280;51175;51.186;0.276;2022-07-11T00:38:24;102031.16;;;23.54;44.58
64739;BME280;51175;51.186;0.276;2022-07-11T00:38:55;102025.78;;;23.54;44.69
64739;BME280;51175;51.186;0.276;2022-07-11T00:39:25;102036.56;;;23.54;44.59
64739;BME280;51175;51.186;0.276;2022-07-11T00:39:55;102037.34;;;23.54;44.69
64739;BME280;51175;51.186;0.276;2022-07-11T00:40:29;102039.56;;;23.52;44.45
64739;BME280;51175;51.186;0.276;2022-07-11T00:40:59;102039.56;;;23.52;44.43
64739;BME280;51175;51.186;0.276;2022-07-11T00:41:30;102037.69;;;23.53;44.76
64739;BME280;51175;51.186;0.276;2022-07-11T00:42:00;102040.69;;;23.51;44.77
64739;BME280;51175;51.186;0.276;2022-07-11T00:42:30;102037.97;;;23.51;44.84
64739;BME280;51175;51.186;0.276;2022-07-11T00:43:04;102040.69;;;23.51;44.60
64739;BME280;51175;51.186;0.276;2022-07-11T00:43:36;102039.06;;;23.50;44.72
64739;BME280;51175;51.186;0.276;2022-07-11T00:44:07;102041.00;;;23.50;44.76
64739;BME280;51175;51.186;0.276;2022-07-11T00:44:38;102042.88;;;23.49;44.53
64739;BME280;51175;51.186;0.276;2022-07-11T00:45:08;102036.69;;;23.49;44.63
64739;BME280;51175;51.186;0.276;2022-07-11T00:45:39;102036.69;;;23.49;44.78
64739;BME280;51175;51.186;0.276;2022-07-11T00:46:09;102035.09;;;23.48;44.61
64739;BME280;51175;51.186;0.276;2022-07-11T00:46:40;102037.81;;;23.48;44.73
64739;BME280;51175;51.186;0.276;2022-07-11T00:47:10;102027.34;;;23.46;44.78
64739;BME280;51175;51.186;0.276;2022-07-11T00:47:41;102039.69;;;23.47;44.84
64739;BME280;51175;51.186;0.276;2022-07-11T00:48:11;102035.41;;;23.46;44.69
64739;BME280;51175;51.186;0.276;2022-07-11T00:48:42;102033.84;;;23.45;44.73
64739;BME280;51175;51.186;0.276;2022-07-11T00:49:12;102034.59;;;23.46;44.71
64739;BME280;51175;51.186;0.276;2022-07-11T00:49:42;102030.34;;;23.44;44.71
64739;BME280;51175;51.186;0.276;2022-07-11T00:50:14;102026.84;;;23.44;44.74
64739;BME280;51175;51.186;0.276;2022-07-11T00:50:45;102028.75;;;23.43;44.73
64739;BME280;51175;51.186;0.276;2022-07-11T00:51:16;102033.34;;;23.43;44.78
64739;BME280;51175;51.186;0.276;2022-07-11T00:51:48;102027.94;;;23.43;44.57
64739;BME280;51175;51.186;0.276;2022-07-11T00:52:19;102027.16;;;23.42;44.70
64739;BME280;51175;51.186;0.276;2022-07-11T00:52:51;102031.75;;;23.42;44.70
64739;BME280;51175;51.186;0.276;2022-07-11T00:53:22;102031.75;;;23.42;44.79
64739;BME280;51175;51.186;0.276;2022-07-11T00:53:55;102040.94;;;23.41;44.91
64739;BME280;51175;51.186;0.276;2022-07-11T00:54:27;102042.53;;;23.42;44.54
64739;BME280;51175;51.186;0.276;2022-07-11T00:54:58;102039.34;;;23.40;44.80
64739;BME280;51175;51.186;0.276;2022-07-11T00:55:29;102042.84;;;23.40;44.79
64739;BME280;51175;51.186;0.276;2022-07-11T00:55:59;102044.75;;;23.40;44.92
64739;BME280;51175;51.186;0.276;2022-07-11T00:56:30;102039.34;;;23.40;44.95
64739;BME280;51175;51.186;0.276;2022-07-11T00:57:01;102047.75;;;23.38;44.60
64739;BME280;51175;51.186;0.276;2022-07-11T00:57:32;102041.25;;;23.39;44.66
64739;BME280;51175;51.186;0.276;2022-07-11T00:58:03;102044.22;;;23.38;44.74
64739;BME280;51175;51.186;0.276;2022-07-11T00:58:35;102044.22;;;23.38;44.73
64739;BME280;51175;51.186;0.276;2022-07-11T00:59:06;102046.13;;;23.37;44.65
64739;BME280;51175;51.186;0.276;2022-07-11T00:59:38;102040.75;;;23.37;45.05
64739;BME280;51175;51.186;0.276;2022-07-11T01:00:09;102041.06;;;23.36;44.87
64739;BME280;51175;51.186;0.276;2022-07-11T01:00:41;102042.63;;;23.37;44.71
64739;BME280;51175;51.186;0.276;2022-07-11T01:01:11;102042.63;;;23.37;44.88
64739;BME280;51175;51.186;0.276;2022-07-11T01:01:42;102038.38;;;23.36;44.56
64739;BME280;51175;51.186;0.276;2022-07-11T01:02:13;102038.38;;;23.36;44.93
64739;BME280;51175;51.186;0.276;2022-07-11T01:02:43;102041.38;;;23.34;44.76
64739;BME280;51175;51.186;0.276;2022-07-11T01:03:14;102035.97;;;23.34;44.92
64739;BME280;51175;51.186;0.276;2022-07-11T01:03:45;102033.56;;;23.32;44.95
64739;BME280;51175;51.186;0.276;2022-07-11T01:04:15;102039.75;;;23.33;44.76
64739;BME280;51175;51.186;0.276;2022-07-11T01:04:46;102039.75;;;23.33;44.98
64739;BME280;51175;51.186;0.276;2022-07-11T01:05:16;102038.19;;;23.32;44.96
64739;BME280;51175;51.186;0.276;2022-07-11T01:05:47;102034.69;;;23.31;44.64
64739;BME280;51175;51.186;0.276;2022-07-11T01:06:17;102033.56;;;23.32;44.90
64739;BME280;51175;51.186;0.276;2022-07-11T01:06:47;102033.88;;;23.31;45.03
64739;BME280;51175;51.186;0.276;2022-07-11T01:07:18;102039.25;;;23.31;44.95
64739;BME280;51175;51.186;0.276;2022-07-11T01:07:48;102036.56;;;23.31;44.90
64739;BME280;51175;51.186;0.276;2022-07-11T01:08:19;102035.00;;;23.30;44.80
64739;BME280;51175;51.186;0.276;2022-07-11T01:08:49;102046.56;;;23.30;44.93
64739;BME280;51175;51.186;0.276;2022-07-11T01:09:20;102031.50;;;23.29;44.80
64739;BME280;51175;51.186;0.276;2022-07-11T01:09:50;102030.72;;;23.29;44.96
64739;BME280;51175;51.186;0.276;2022-07-11T01:10:21;102038.81;;;23.29;44.88
64739;BME280;51175;51.186;0.276;2022-07-11T01:10:52;102035.31;;;23.28;44.81
64739;BME280;51175;51.186;0.276;2022-07-11T01:11:22;102038.00;;;23.28;44.92
64739;BME280;51175;51.186;0.276;2022-07-11T01:11:53;102035.31;;;23.28;44.97
64739;BME280;51175;51.186;0.276;2022-07-11T01:12:24;102038.00;;;23.28;44.98
64739;BME280;51175;51.186;0.276;2022-07-11T01:12:54;102032.91;;;23.27;44.84
64739;BME280;51175;51.186;0.276;2022-07-11T01:13:25;102042.56;;;23.28;44.83
64739;BME280;51175;51.186;0.276;2022-07-11T01:13:55;102041.81;;;23.27;44.85
64739;BME280;51175;51.186;0.276;2022-07-11T01:14:26;102035.59;;;23.27;45.06
64739;BME280;51175;51.186;0.276;2022-07-11T01:14:56;102037.50;;;23.26;44.90
64739;BME280;51175;51.186;0.276;2022-07-11T01:15:34;102035.91;;;23.25;45.11
64739;BME280;51175;51.186;0.276;2022-07-11T01:16:12;102035.09;;;23.25;45.04
64739;BME280;51175;51.186;0.276;2022-07-11T01:16:43;102044.00;;;23.25;45.00
64739;BME280;51175;51.186;0.276;2022-07-11T01:17:13;102030.84;;;23.24;45.09
64739;BME280;51175;51.186;0.276;2022-07-11T01:17:43;102043.19;;;23.25;45.02
64739;BME280;51175;51.186;0.276;2022-07-11T01:18:14;102036.22;;;23.24;45.07
64739;BME280;51175;51.186;0.276;2022-07-11T01:18:48;102030.03;;;23.23;44.79
64739;BME280;51175;51.186;0.276;2022-07-11T01:19:19;102034.66;;;23.23;44.89
64739;BME280;51175;51.186;0.276;2022-07-11T01:19:49;102035.72;;;23.22;44.99
64739;BME280;51175;51.186;0.276;2022-07-11T01:20:20;102032.25;;;23.21;45.06
64739;BME280;51175;51.186;0.276;2022-07-11T01:20:52;102037.66;;;23.21;45.08
64739;BME280;51175;51.186;0.276;2022-07-11T01:21:33;102029.88;;;23.19;45.16
64739;BME280;51175;51.186;0.276;2022-07-11T01:22:05;102028.75;;;23.21;45.05
64739;BME280;51175;51.186;0.276;2022-07-11T01:22:39;102028.75;;;23.21;45.02
64739;BME280;51175;51.186;0.276;2022-07-11T01:23:10;102030.97;;;23.18;45.22
64739;BME280;51175;51.186;0.276;2022-07-11T01:23:41;102029.88;;;23.19;44.92
64739;BME280;51175;51.186;0.276;2022-07-11T01:24:11;102028.25;;;23.18;44.97
64739;BME280;51175;51.186;0.276;2022-07-11T01:24:42;102025.56;;;23.18;45.13
64739;BME280;51175;51.186;0.276;2022-07-11T01:25:13;102027.50;;;23.18;44.97
64739;BME280;51175;51.186;0.276;2022-07-11T01:25:59;102026.69;;;23.17;45.14
64739;BME280;51175;51.186;0.276;2022-07-11T01:26:30;102035.88;;;23.16;45.04
64739;BME280;51175;51.186;0.276;2022-07-11T01:27:03;102031.28;;;23.17;45.02
64739;BME280;51175;51.186;0.276;2022-07-11T01:27:35;102031.28;;;23.17;45.21
64739;BME280;51175;51.186;0.276;2022-07-11T01:28:06;102028.88;;;23.15;45.31
64739;BME280;51175;51.186;0.276;2022-07-11T01:28:36;102030.81;;;23.15;45.20
64739;BME280;51175;51.186;0.276;2022-07-11T01:29:38;102034.28;;;23.15;45.04
64739;BME280;51175;51.186;0.276;2022-07-11T01:30:09;102038.88;;;23.15;45.39
64739;BME280;51175;51.186;0.276;2022-07-11T01:30:39;102031.56;;;23.15;45.48
64739;BME280;51175;51.186;0.276;2022-07-11T01:31:11;102038.06;;;23.14;45.39
64739;BME280;51175;51.186;0.276;2022-07-11T01:31:42;102034.56;;;23.14;45.15
64739;BME280;51175;51.186;0.276;2022-07-11T01:32:13;102030.31;;;23.13;45.23
64739;BME280;51175;51.186;0.276;2022-07-11T01:32:44;102041.09;;;23.13;45.38
64739;BME280;51175;51.186;0.276;2022-07-11T01:33:14;102033.81;;;23.13;45.28
64739;BME280;51175;51.186;0.276;2022-07-11T01:33:45;102033.00;;;23.13;45.48
64739;BME280;51175;51.186;0.276;2022-07-11T01:34:15;102037.59;;;23.12;45.17
64739;BME280;51175;51.186;0.276;2022-07-11T01:34:45;102036.00;;;23.11;45.25
64739;BME280;51175;51.186;0.276;2022-07-11T01:35:16;102035.19;;;23.11;45.29
64739;BME280;51175;51.186;0.276;2022-07-11T01:35:46;102027.91;;;23.11;45.19
64739;BME280;51175;51.186;0.276;2022-07-11T01:36:17;102035.19;;;23.11;45.43
64739;BME280;51175;51.186;0.276;2022-07-11T01:36:47;102029.81;;;23.11;45.23
64739;BME280;51175;51.186;0.276;2022-07-11T01:37:18;102034.41;;;23.10;45.16
64739;BME280;51175;51.186;0.276;2022-07-11T01:37:49;102023.66;;;23.10;45.31
64739;BME280;51175;51.186;0.276;2022-07-11T01:38:19;102025.53;;;23.10;45.35
64739;BME280;51175;51.186;0.276;2022-07-11T01:38:50;102025.53;;;23.10;45.25
64739;BME280;51175;51.186;0.276;2022-07-11T01:39:20;102025.53;;;23.10;45.45
64739;BME280;51175;51.186;0.276;2022-07-11T01:39:50;102023.94;;;23.09;45.62
64739;BME280;51175;51.186;0.276;2022-07-11T01:40:21;102025.84;;;23.08;45.42
64739;BME280;51175;51.186;0.276;2022-07-11T01:40:51;102031.22;;;23.08;45.39
64739;BME280;51175;51.186;0.276;2022-07-11T01:41:22;102024.25;;;23.07;45.46
64739;BME280;51175;51.186;0.276;2022-07-11T01:41:52;102021.56;;;23.07;45.31
64739;BME280;51175;51.186;0.276;2022-07-11T01:42:22;102022.66;;;23.06;45.36
64739;BME280;51175;51.186;0.276;2022-07-11T01:42:53;102022.66;;;23.06;45.28
64739;BME280;51175;51.186;0.276;2022-07-11T01:43:23;102023.75;;;23.05;45.49
64739;BME280;51175;51.186;0.276;2022-07-11T01:43:54;102021.06;;;23.05;45.65
64739;BME280;51175;51.186;0.276;2022-07-11T01:44:25;102026.47;;;23.05;45.44
64739;BME280;51175;51.186;0.276;2022-07-11T01:44:55;102023.75;;;23.05;45.48
64739;BME280;51175;51.186;0.276;2022-07-11T01:45:25;102022.19;;;23.04;45.48
64739;BME280;51175;51.186;0.276;2022-07-11T01:45:57;102026.75;;;23.03;45.47
64739;BME280;51175;51.186;0.276;2022-07-11T01:46:27;102026.75;;;23.03;45.54
64739;BME280;51175;51.186;0.276;2022-07-11T01:46:58;102025.97;;;23.03;45.66
64739;BME280;51175;51.186;0.276;2022-07-11T01:47:28;102024.38;;;23.02;45.57
64739;BME280;51175;51.186;0.276;2022-07-11T01:47:59;102017.09;;;23.02;45.39
64739;BME280;51175;51.186;0.276;2022-07-11T01:48:29;102027.06;;;23.02;45.69
64739;BME280;51175;51.186;0.276;2022-07-11T01:48:59;102028.19;;;23.01;45.49
64739;BME280;51175;51.186;0.276;2022-07-11T01:49:30;102015.50;;;23.01;45.64
64739;BME280;51175;51.186;0.276;2022-07-11T01:50:00;102025.50;;;23.01;45.46
64739;BME280;51175;51.186;0.276;2022-07-11T01:50:31;102022.81;;;23.01;45.82
64739;BME280;51175;51.186;0.276;2022-07-11T01:51:01;102022.00;;;23.00;45.61
64739;BME280;51175;51.186;0.276;2022-07-11T01:51:34;102016.59;;;23.00;45.48
64739;BME280;51175;51.186;0.276;2022-07-11T01:52:05;102017.69;;;22.99;45.42
64739;BME280;51175;51.186;0.276;2022-07-11T01:52:35;102021.19;;;23.00;45.25
64739;BME280;51175;51.186;0.276;2022-07-11T01:53:05;102018.00;;;22.98;45.50
64739;BME280;51175;51.186;0.276;2022-07-11T01:53:36;102013.41;;;22.98;45.66
64739;BME280;51175;51.186;0.276;2022-07-11T01:54:06;102014.22;;;22.99;45.72
64739;BME280;51175;51.186;0.276;2022-07-11T01:54:37;102011.84;;;22.97;45.52
64739;BME280;51175;51.186;0.276;2022-07-11T01:55:07;102012.59;;;22.98;45.80
64739;BME280;51175;51.186;0.276;2022-07-11T01:55:38;102016.41;;;22.97;45.55
64739;BME280;51175;51.186;0.276;2022-07-11T01:56:09;102021.81;;;22.97;45.78
64739;BME280;51175;51.186;0.276;2022-07-11T01:56:39;102021.00;;;22.96;45.61
64739;BME280;51175;51.186;0.276;2022-07-11T01:57:09;102015.59;;;22.96;45.55
64739;BME280;51175;51.186;0.276;2022-07-11T01:57:40;102011.34;;;22.95;45.70
64739;BME280;51175;51.186;0.276;2022-07-11T01:58:10;102016.72;;;22.95;45.53
64739;BME280;51175;51.186;0.276;2022-07-11T01:58:41;102008.66;;;22.95;45.61
64739;BME280;51175;51.186;0.276;2022-07-11T01:59:11;102015.91;;;22.94;45.52
64739;BME280;51175;51.186;0.276;2022-07-11T01:59:41;102015.91;;;22.94;45.72
64739;BME280;51175;51.186;0.276;2022-07-11T02:00:12;102021.31;;;22.94;45.74
64739;BME280;51175;51.186;0.276;2022-07-11T02:00:43;102020.53;;;22.94;45.65
64739;BME280;51175;51.186;0.276;2022-07-11T02:01:14;102017.84;;;22.94;45.69
64739;BME280;51175;51.186;0.276;2022-07-11T02:01:44;102018.16;;;22.92;45.68
64739;BME280;51175;51.186;0.276;2022-07-11T02:02:15;102017.34;;;22.92;45.61
64739;BME280;51175;51.186;0.276;2022-07-11T02:02:45;102017.34;;;22.92;45.74
64739;BME280;51175;51.186;0.276;2022-07-11T02:03:16;102019.22;;;22.91;45.83
64739;BME280;51175;51.186;0.276;2022-07-11T02:03:46;102016.53;;;22.91;45.58
64739;BME280;51175;51.186;0.276;2022-07-11T02:04:17;102015.75;;;22.91;45.42
64739;BME280;51175;51.186;0.276;2022-07-11T02:04:47;102013.06;;;22.91;45.65
64739;BME280;51175;51.186;0.276;2022-07-11T02:05:19;102014.16;;;22.90;45.54
64739;BME280;51175;51.186;0.276;2022-07-11T02:05:50;102008.00;;;22.89;45.75
64739;BME280;51175;51.186;0.276;2022-07-11T02:06:20;102008.00;;;22.89;45.71
64739;BME280;51175;51.186;0.276;2022-07-11T02:06:51;102009.88;;;22.89;45.64
64739;BME280;51175;51.186;0.276;2022-07-11T02:07:21;102009.06;;;22.88;45.75
64739;BME280;51175;51.186;0.276;2022-07-11T02:08:11;102012.88;;;22.87;45.63
64739;BME280;51175;51.186;0.276;2022-07-11T02:08:42;102019.38;;;22.86;45.50
64739;BME280;51175;51.186;0.276;2022-07-11T02:09:12;102010.50;;;22.86;45.87
64739;BME280;51175;51.186;0.276;2022-07-11T02:09:42;102011.28;;;22.86;45.92
64739;BME280;51175;51.186;0.276;2022-07-11T02:10:13;102017.75;;;22.85;45.78
64739;BME280;51175;51.186;0.276;2022-07-11T02:10:45;102001.91;;;22.84;45.78
64739;BME280;51175;51.186;0.276;2022-07-11T02:11:16;102008.09;;;22.84;45.74
64739;BME280;51175;51.186;0.276;2022-07-11T02:11:46;102012.38;;;22.85;45.68
64739;BME280;51175;51.186;0.276;2022-07-11T02:12:16;102015.38;;;22.84;45.77
64739;BME280;51175;51.186;0.276;2022-07-11T02:12:48;102010.78;;;22.84;45.91
64739;BME280;51175;51.186;0.276;2022-07-11T02:13:20;102010.00;;;22.84;45.89
64739;BME280;51175;51.186;0.276;2022-07-11T02:13:51;102011.91;;;22.83;45.70
64739;BME280;51175;51.186;0.276;2022-07-11T02:14:22;102008.41;;;22.82;45.94
64739;BME280;51175;51.186;0.276;2022-07-11T02:14:52;102011.09;;;22.82;45.81
64739;BME280;51175;51.186;0.276;2022-07-11T02:15:23;102006.84;;;22.81;45.96
64739;BME280;51175;51.186;0.276;2022-07-11T02:15:53;102009.53;;;22.81;46.05
64739;BME280;51175;51.186;0.276;2022-07-11T02:16:23;102004.13;;;22.81;45.88
64739;BME280;51175;51.186;0.276;2022-07-11T02:16:54;102006.84;;;22.81;46.02
64739;BME280;51175;51.186;0.276;2022-07-11T02:17:24;102002.53;;;22.80;45.89
64739;BME280;51175;51.186;0.276;2022-07-11T02:17:55;101999.84;;;22.80;46.04
64739;BME280;51175;51.186;0.276;2022-07-11T02:18:25;102006.34;;;22.79;45.69
64739;BME280;51175;51.186;0.276;2022-07-11T02:18:56;102004.44;;;22.80;45.96
64739;BME280;51175;51.186;0.276;2022-07-11T02:19:26;102004.44;;;22.80;45.91
64739;BME280;51175;51.186;0.276;2022-07-11T02:19:57;102003.63;;;22.79;45.95
64739;BME280;51175;51.186;0.276;2022-07-11T02:20:27;101997.44;;;22.79;46.08
64739;BME280;51175;51.186;0.276;2022-07-11T02:20:57;102003.63;;;22.79;45.84
64739;BME280;51175;51.186;0.276;2022-07-11T02:21:28;102001.25;;;22.78;45.96
64739;BME280;51175;51.186;0.276;2022-07-11T02:21:58;101996.66;;;22.78;45.97
64739;BME280;51175;51.186;0.276;2022-07-11T02:22:36;101996.97;;;22.77;46.13
64739;BME280;51175;51.186;0.276;2022-07-11T02:23:07;101997.75;;;22.77;45.84
64739;BME280;51175;51.186;0.276;2022-07-11T02:23:38;102002.38;;;22.77;46.11
64739;BME280;51175;51.186;0.276;2022-07-11T02:24:08;101996.97;;;22.77;46.05
64739;BME280;51175;51.186;0.276;2022-07-11T02:24:39;101993.47;;;22.76;46.12
64739;BME280;51175;51.186;0.276;2022-07-11T02:25:09;101998.06;;;22.76;46.16
64739;BME280;51175;51.186;0.276;2022-07-11T02:25:40;101999.97;;;22.75;45.93
64739;BME280;51175;51.186;0.276;2022-07-11T02:26:10;101999.97;;;22.75;46.03
64739;BME280;51175;51.186;0.276;2022-07-11T02:26:41;101993.78;;;22.75;45.98
64739;BME280;51175;51.186;0.276;2022-07-11T02:27:11;101991.09;;;22.75;45.91
64739;BME280;51175;51.186;0.276;2022-07-11T02:27:42;101996.47;;;22.75;46.11
64739;BME280;51175;51.186;0.276;2022-07-11T02:28:12;101997.59;;;22.74;46.20
64739;BME280;51175;51.186;0.276;2022-07-11T02:28:43;101997.59;;;22.74;46.21
64739;BME280;51175;51.186;0.276;2022-07-11T02:29:15;101998.69;;;22.73;46.05
64739;BME280;51175;51.186;0.276;2022-07-11T02:29:45;101999.78;;;22.72;46.01
64739;BME280;51175;51.186;0.276;2022-07-11T02:30:16;101995.19;;;22.72;46.04
64739;BME280;51175;51.186;0.276;2022-07-11T02:30:46;101999.78;;;22.72;46.13
64739;BME280;51175;51.186;0.276;2022-07-11T02:31:16;101997.41;;;22.70;46.04
64739;BME280;51175;51.186;0.276;2022-07-11T02:31:47;101997.09;;;22.72;45.96
64739;BME280;51175;51.186;0.276;2022-07-11T02:32:17;101993.91;;;22.69;46.17
64739;BME280;51175;51.186;0.276;2022-07-11T02:32:49;101993.91;;;22.69;45.96
64739;BME280;51175;51.186;0.276;2022-07-11T02:33:20;101995.81;;;22.69;46.10
64739;BME280;51175;51.186;0.276;2022-07-11T02:33:50;101994.22;;;22.68;46.08
64739;BME280;51175;51.186;0.276;2022-07-11T02:34:20;101985.34;;;22.67;46.04
64739;BME280;51175;51.186;0.276;2022-07-11T02:34:51;101988.81;;;22.68;45.88
64739;BME280;51175;51.186;0.276;2022-07-11T02:35:21;101987.25;;;22.67;45.93
64739;BME280;51175;51.186;0.276;2022-07-11T02:35:52;101989.13;;;22.66;46.13
64739;BME280;51175;51.186;0.276;2022-07-11T02:36:22;101982.16;;;22.65;46.27
64739;BME280;51175;51.186;0.276;2022-07-11T02:36:52;101984.03;;;22.65;45.97
64739;BME280;51175;51.186;0.276;2022-07-11T02:37:23;101982.16;;;22.65;46.24
64739;BME280;51175;51.186;0.276;2022-07-11T02:37:53;101985.94;;;22.64;46.25
64739;BME280;51175;51.186;0.276;2022-07-11T02:38:23;101981.66;;;22.63;46.24
64739;BME280;51175;51.186;0.276;2022-07-11T02:38:54;101976.28;;;22.63;46.15
64739;BME280;51175;51.186;0.276;2022-07-11T02:39:24;101973.59;;;22.63;46.11
64739;BME280;51175;51.186;0.276;2022-07-11T02:39:55;101987.03;;;22.63;46.31
64739;BME280;51175;51.186;0.276;2022-07-11T02:40:26;101979.28;;;22.62;45.96
64739;BME280;51175;51.186;0.276;2022-07-11T02:40:59;101975.78;;;22.61;46.15
64739;BME280;51175;51.186;0.276;2022-07-11T02:41:30;101977.69;;;22.61;46.31
64739;BME280;51175;51.186;0.276;2022-07-11T02:42:00;101979.59;;;22.60;46.39
64739;BME280;51175;51.186;0.276;2022-07-11T02:42:30;101980.69;;;22.59;46.29